Time;durP1;ratioP1;P1;durP2;ratioP2;P2;SDS_P1;SDS_P2;PMS_P1;PMS_P2;Temp;Humidity;BMP_temperature;BMP_pressure;BME280_temperature;BME280_humidity;BME280_pressure;Samples;Min_cycle;Max_cycle;Signal;HPM_P1;HPM_P2
2022/02/23 00:01:38;;;;;;;4.05;0.90;;;;;;;-146.05;100.00;59461.22;4995753;28;20528;-80
2022/02/23 00:04:06;;;;;;;3.38;1.10;;;;;;;-146.05;100.00;59461.22;4995609;28;20074;-80
2022/02/23 00:06:34;;;;;;;2.42;1.08;;;;;;;-146.05;100.00;59461.22;4995221;28;20057;-80
2022/02/23 00:09:01;;;;;;;4.10;1.13;;;;;;;-146.05;100.00;59461.22;4995255;28;20050;-80
2022/02/23 00:11:29;;;;;;;4.85;1.20;;;;;;;-146.05;100.00;59461.22;4995532;28;20055;-80
2022/02/23 00:13:57;;;;;;;3.00;0.90;;;;;;;-146.05;100.00;59461.22;4995922;28;20050;-80
2022/02/23 00:16:25;;;;;;;3.65;0.90;;;;;;;-146.05;100.00;59461.22;4995002;28;20050;-80
2022/02/23 00:18:52;;;;;;;3.80;1.17;;;;;;;-146.05;100.00;59461.22;4995346;28;20065;-80
2022/02/23 00:21:20;;;;;;;2.13;1.23;;;;;;;-146.05;100.00;59461.22;4994809;28;20050;-80
2022/02/23 00:23:48;;;;;;;2.85;0.93;;;;;;;-146.05;100.00;59461.22;4995168;28;20046;-80
2022/02/23 00:26:15;;;;;;;3.80;1.10;;;;;;;-146.05;100.00;59461.22;4994536;28;20489;-80
2022/02/23 00:28:44;;;;;;;3.30;0.75;;;;;;;-146.05;100.00;59461.22;4995021;28;20464;-80
2022/02/23 00:31:13;;;;;;;4.57;1.10;;;;;;;-146.05;100.00;59461.22;4994878;28;20053;-80
2022/02/23 00:33:41;;;;;;;3.35;0.80;;;;;;;-146.05;100.00;59461.22;4994170;28;20053;-80
2022/02/23 00:36:09;;;;;;;4.40;1.10;;;;;;;-146.05;100.00;59461.22;4994605;28;20054;-80
2022/02/23 00:38:36;;;;;;;2.00;0.77;;;;;;;-146.05;100.00;59461.22;4995320;28;20058;-80
2022/02/23 00:41:04;;;;;;;3.53;1.00;;;;;;;-146.05;100.00;59461.22;5007725;28;20049;-80
2022/02/23 00:43:31;;;;;;;2.65;1.13;;;;;;;-146.05;100.00;59461.22;5060708;22;20045;-82
2022/02/23 00:45:59;;;;;;;5.90;0.80;;;;;;;-146.05;100.00;59461.22;5057908;28;20458;-81
2022/02/23 00:48:28;;;;;;;3.03;0.90;;;;;;;-146.05;100.00;59461.22;5057221;28;20491;-83
2022/02/23 00:50:55;;;;;;;4.18;0.88;;;;;;;-146.05;100.00;59461.22;5058128;28;20056;-83
2022/02/23 00:53:23;;;;;;;4.20;0.90;;;;;;;-146.05;100.00;59461.22;5057800;28;20049;-83
2022/02/23 00:55:52;;;;;;;2.30;0.55;;;;;;;-146.05;100.00;59461.22;5056803;28;20438;-83
2022/02/23 00:58:19;;;;;;;5.20;0.88;;;;;;;-146.05;100.00;59461.22;5055840;28;20052;-83
2022/02/23 01:00:47;;;;;;;1.23;0.60;;;;;;;-146.05;100.00;59461.22;5055585;28;20414;-83
2022/02/23 01:03:14;;;;;;;2.08;0.73;;;;;;;-146.05;100.00;59461.22;5055621;28;20045;-82
2022/02/23 01:05:43;;;;;;;2.67;0.77;;;;;;;-146.05;100.00;59461.22;5057531;28;20053;-82
2022/02/23 01:08:11;;;;;;;2.45;0.60;;;;;;;-146.05;100.00;59461.22;5056804;28;20041;-82
2022/02/23 01:10:38;;;;;;;3.10;0.85;;;;;;;-146.05;100.00;59461.22;5056027;28;20049;-83
2022/02/23 01:13:06;;;;;;;1.55;0.63;;;;;;;-146.05;100.00;59461.22;5056086;28;20048;-82
2022/02/23 01:15:35;;;;;;;3.63;0.70;;;;;;;-146.05;100.00;59461.22;5059334;28;20498;-83
2022/02/23 01:18:03;;;;;;;1.13;0.68;;;;;;;-146.05;100.00;59461.22;5056910;28;20517;-83
2022/02/23 01:20:30;;;;;;;1.80;0.90;;;;;;;-146.05;100.00;59461.22;5055664;28;20044;-83
2022/02/23 01:23:00;;;;;;;3.47;0.70;;;;;;;-146.05;100.00;59461.22;5057658;28;20080;-83
2022/02/23 01:25:31;;;;;;;1.20;0.63;;;;;;;-146.05;100.00;59461.22;5055773;28;20692;-83
2022/02/23 01:28:02;;;;;;;;;;;;;;;-146.05;100.00;59461.22;5057844;28;20073;-83
2022/02/23 01:30:30;;;;;;;1.88;0.57;;;;;;;-146.05;100.00;59461.22;5057311;28;19921;-82
2022/02/23 01:32:58;;;;;;;1.33;0.70;;;;;;;-146.05;100.00;59461.22;5057608;28;20045;-83
2022/02/23 01:35:26;;;;;;;1.83;1.00;;;;;;;-146.05;100.00;59461.22;5057408;28;20052;-83
2022/02/23 01:37:55;;;;;;;3.17;0.60;;;;;;;-146.05;100.00;59461.22;5060336;28;20553;-83
2022/02/23 01:40:25;;;;;;;1.17;0.30;;;;;;;-146.05;100.00;59461.22;5065802;28;20048;-83
2022/02/23 01:42:53;;;;;;;2.83;0.68;;;;;;;-146.05;100.00;59461.22;5066392;28;20059;-83
2022/02/23 01:45:21;;;;;;;1.77;0.60;;;;;;;-146.05;100.00;59461.22;5065031;28;20056;-83
2022/02/23 01:47:48;;;;;;;1.77;0.70;;;;;;;-146.05;100.00;59461.22;5067562;28;20053;-82
2022/02/23 01:50:17;;;;;;;1.98;1.02;;;;;;;-146.05;100.00;59461.22;5067492;28;20045;-82
2022/02/23 01:52:46;;;;;;;5.03;0.68;;;;;;;-146.05;100.00;59461.22;5068694;28;20040;-83
2022/02/23 01:55:14;;;;;;;2.50;0.50;;;;;;;-146.05;100.00;59461.22;5073624;28;20061;-83
2022/02/23 01:57:43;;;;;;;3.47;1.13;;;;;;;-146.05;100.00;59461.22;5066990;28;20056;-82
2022/02/23 02:00:14;;;;;;;1.90;0.30;;;;;;;-146.05;100.00;59461.22;5069958;28;20053;-83
2022/02/23 02:02:42;;;;;;;2.75;0.50;;;;;;;-146.05;100.00;59461.22;5069602;28;20055;-82
2022/02/23 02:05:10;;;;;;;2.80;0.60;;;;;;;-146.05;100.00;59461.22;5066561;28;20045;-83
2022/02/23 02:07:38;;;;;;;2.15;0.45;;;;;;;-146.05;100.00;59461.22;5057713;28;20060;-83
2022/02/23 02:10:08;;;;;;;3.05;0.40;;;;;;;-146.05;100.00;59461.22;5067525;28;20048;-83
2022/02/23 02:12:36;;;;;;;4.07;0.80;;;;;;;-146.05;100.00;59461.22;5066804;28;20055;-82
2022/02/23 02:15:07;;;;;;;1.65;0.50;;;;;;;-146.05;100.00;59461.22;5066809;28;20442;-82
2022/02/23 02:17:36;;;;;;;3.60;0.40;;;;;;;-146.05;100.00;59461.22;5066137;28;20049;-83
2022/02/23 02:20:03;;;;;;;4.00;1.00;;;;;;;-146.05;100.00;59461.22;5065619;28;20076;-83
2022/02/23 02:22:32;;;;;;;1.70;0.30;;;;;;;-146.05;100.00;59461.22;5065960;28;20048;-83
2022/02/23 02:25:00;;;;;;;1.40;0.52;;;;;;;-146.05;100.00;59461.22;5067365;28;20045;-83
2022/02/23 02:27:28;;;;;;;4.93;0.68;;;;;;;-146.05;100.00;59461.22;5066255;28;20048;-83
2022/02/23 02:29:55;;;;;;;3.00;0.30;;;;;;;-146.05;100.00;59461.22;5069162;28;20048;-83
2022/02/23 02:32:24;;;;;;;2.90;0.47;;;;;;;-146.05;100.00;59461.22;5068419;28;20049;-83
2022/02/23 02:34:52;;;;;;;2.92;0.60;;;;;;;-146.05;100.00;59461.22;5065776;28;20067;-83
2022/02/23 02:37:19;;;;;;;3.50;0.50;;;;;;;-146.05;100.00;59461.22;5066168;28;20071;-83
2022/02/23 02:39:48;;;;;;;1.23;0.57;;;;;;;-146.05;100.00;59461.22;5065117;28;20522;-82
2022/02/23 02:42:20;;;;;;;;;;;;;;;-146.05;100.00;59461.22;5065226;28;20183;-82
2022/02/23 02:44:47;;;;;;;2.65;0.60;;;;;;;-146.05;100.00;59461.22;5064538;28;19927;-82
2022/02/23 02:47:15;;;;;;;1.75;0.40;;;;;;;-146.05;100.00;59461.22;5063780;28;20045;-82
2022/02/23 02:49:43;;;;;;;1.85;0.55;;;;;;;-146.05;100.00;59461.22;5065899;28;20465;-82
2022/02/23 02:52:11;;;;;;;2.33;0.68;;;;;;;-146.05;100.00;59461.22;5065099;28;20053;-83
2022/02/23 02:54:38;;;;;;;2.78;0.80;;;;;;;-146.05;100.00;59461.22;5066138;28;20045;-82
2022/02/23 02:57:08;;;;;;;1.60;0.63;;;;;;;-146.05;100.00;59461.22;5064440;28;20049;-81
2022/02/23 02:59:35;;;;;;;3.05;1.67;;;;;;;-146.05;100.00;59461.22;5065499;28;20052;-82
2022/02/23 03:02:04;;;;;;;2.13;0.60;;;;;;;-146.05;100.00;59461.22;5062920;28;20109;-83
2022/02/23 03:04:33;;;;;;;1.75;0.50;;;;;;;-146.05;100.00;59461.22;5082923;28;20028;-83
2022/02/23 03:07:01;;;;;;;2.53;0.80;;;;;;;-146.05;100.00;59461.22;5080347;28;20045;-82
2022/02/23 03:09:29;;;;;;;3.25;0.85;;;;;;;-146.05;100.00;59461.22;5058647;28;20045;-81
2022/02/23 03:11:56;;;;;;;2.92;0.95;;;;;;;-146.05;100.00;59461.22;5072888;28;20055;-80
2022/02/23 03:14:25;;;;;;;1.90;0.40;;;;;;;-146.05;100.00;59461.22;5071142;28;20049;-80
2022/02/23 03:16:53;;;;;;;2.20;0.55;;;;;;;-146.05;100.00;59461.22;5064833;28;20059;-79
2022/02/23 03:19:20;;;;;;;7.13;1.50;;;;;;;-146.05;100.00;59461.22;5054072;28;20049;-79
2022/02/23 03:21:48;;;;;;;6.53;0.60;;;;;;;-146.05;100.00;59461.22;5052226;28;20049;-81
2022/02/23 03:24:15;;;;;;;1.40;0.90;;;;;;;-146.05;100.00;59461.22;5061719;28;20052;-78
2022/02/23 03:26:43;;;;;;;1.08;0.60;;;;;;;-146.05;100.00;59461.22;5062294;28;20052;-79
2022/02/23 03:29:10;;;;;;;1.58;0.40;;;;;;;-146.05;100.00;59461.22;5055538;28;20049;-79
2022/02/23 03:31:39;;;;;;;5.05;2.15;;;;;;;-146.05;100.00;59461.22;5055380;28;20045;-80
2022/02/23 03:34:06;;;;;;;2.83;0.85;;;;;;;-146.05;100.00;59461.22;5054590;28;20430;-79
2022/02/23 03:36:34;;;;;;;6.97;1.15;;;;;;;-146.05;100.00;59461.22;5052919;28;20041;-79
2022/02/23 03:39:05;;;;;;;2.67;1.00;;;;;;;-146.05;100.00;59461.22;5052951;28;20060;-79
2022/02/23 03:41:32;;;;;;;2.38;0.63;;;;;;;-146.05;100.00;59461.22;5053119;28;20056;-79
2022/02/23 03:44:03;;;;;;;3.35;0.88;;;;;;;-146.05;100.00;59461.22;5052991;28;20045;-78
2022/02/23 03:46:31;;;;;;;2.00;0.52;;;;;;;-146.05;100.00;59461.22;5052960;28;20053;-79
2022/02/23 03:49:00;;;;;;;2.30;0.60;;;;;;;-146.05;100.00;59461.22;5053651;28;20045;-79
2022/02/23 03:51:27;;;;;;;3.60;0.85;;;;;;;-146.05;100.00;59461.22;5054757;28;20053;-79
2022/02/23 03:53:55;;;;;;;3.00;0.77;;;;;;;-146.05;100.00;59461.22;5054794;28;20131;-79
2022/02/23 03:56:42;;;;;;;5.32;1.33;;;;;;;-146.05;100.00;59461.22;5054616;28;20049;-79
2022/02/23 03:59:11;;;;;;;8.23;3.53;;;;;;;-146.05;100.00;59461.22;5054777;28;20052;-79
2022/02/23 04:01:45;;;;;;;3.72;0.90;;;;;;;-146.05;100.00;59461.22;5054609;28;20057;-79
2022/02/23 04:04:16;;;;;;;6.50;2.05;;;;;;;-146.05;100.00;59461.22;5054952;28;20056;-79
2022/02/23 04:06:44;;;;;;;4.68;0.90;;;;;;;-146.05;100.00;59461.22;5054002;28;20416;-79
2022/02/23 04:09:12;;;;;;;3.90;1.60;;;;;;;-146.05;100.00;59461.22;5054567;28;20415;-79
2022/02/23 04:11:40;;;;;;;2.80;1.00;;;;;;;-146.05;100.00;59461.22;5054687;28;20060;-79
2022/02/23 04:14:08;;;;;;;7.78;1.60;;;;;;;-146.05;100.00;59461.22;5054441;28;20045;-78
2022/02/23 04:16:36;;;;;;;2.28;1.15;;;;;;;-146.05;100.00;59461.22;5054280;28;20056;-79
2022/02/23 04:19:05;;;;;;;3.72;1.63;;;;;;;-146.05;100.00;59461.22;5054202;28;20408;-79
2022/02/23 04:21:34;;;;;;;2.63;1.40;;;;;;;-146.05;100.00;59461.22;5054433;28;20049;-79
2022/02/23 04:24:02;;;;;;;5.72;0.98;;;;;;;-146.05;100.00;59461.22;5054322;28;20044;-79
2022/02/23 04:26:30;;;;;;;2.83;0.90;;;;;;;-146.05;100.00;59461.22;5053875;28;20052;-78
2022/02/23 04:28:57;;;;;;;3.42;0.77;;;;;;;-146.05;100.00;59461.22;5054119;28;20056;-78
2022/02/23 04:31:25;;;;;;;2.85;0.88;;;;;;;-146.05;100.00;59461.22;5054054;28;20041;-79
2022/02/23 04:33:53;;;;;;;2.35;0.98;;;;;;;-146.05;100.00;59461.22;5054149;28;20045;-79
2022/02/23 04:36:21;;;;;;;4.97;1.00;;;;;;;-146.05;100.00;59461.22;5053784;28;20064;-79
2022/02/23 04:38:52;;;;;;;2.40;0.88;;;;;;;-146.05;100.00;59461.22;5052719;28;20061;-79
2022/02/23 04:41:20;;;;;;;3.92;1.08;;;;;;;-146.05;100.00;59461.22;5053964;28;20049;-79
2022/02/23 04:43:47;;;;;;;6.72;2.05;;;;;;;-146.05;100.00;59461.22;5053650;28;20048;-78
2022/02/23 04:46:15;;;;;;;3.58;1.85;;;;;;;-146.05;100.00;59461.22;5053602;28;20518;-78
2022/02/23 04:48:44;;;;;;;5.93;2.10;;;;;;;-146.05;100.00;59461.22;5053870;28;20044;-78
2022/02/23 04:51:13;;;;;;;3.40;0.93;;;;;;;-146.05;100.00;59461.22;5054392;28;20049;-78
2022/02/23 04:53:40;;;;;;;4.35;1.40;;;;;;;-146.05;100.00;59461.22;5053837;28;20048;-79
2022/02/23 04:56:10;;;;;;;4.72;0.82;;;;;;;-146.05;100.00;59461.22;5053872;28;20049;-78
2022/02/23 04:58:37;;;;;;;2.78;0.77;;;;;;;-146.05;100.00;59461.22;5053600;28;20041;-79
2022/02/23 05:01:06;;;;;;;3.15;0.80;;;;;;;-146.05;100.00;59461.22;5053633;28;20052;-78
2022/02/23 05:03:33;;;;;;;3.85;1.08;;;;;;;-146.05;100.00;59461.22;5054967;28;20063;-79
2022/02/23 05:06:01;;;;;;;1.75;0.80;;;;;;;-146.05;100.00;59461.22;5053666;28;20064;-78
2022/02/23 05:08:29;;;;;;;4.63;0.93;;;;;;;-146.05;100.00;59461.22;5053298;28;20051;-79
2022/02/23 05:10:57;;;;;;;3.50;1.00;;;;;;;-146.05;100.00;59461.22;5053240;28;20513;-79
2022/02/23 05:13:26;;;;;;;3.58;0.80;;;;;;;-146.05;100.00;59461.22;5053314;28;20391;-79
2022/02/23 05:15:56;;;;;;;3.72;0.93;;;;;;;-146.05;100.00;59461.22;5053004;28;20053;-78
2022/02/23 05:18:24;;;;;;;3.63;0.95;;;;;;;-146.05;100.00;59461.22;5053261;28;20049;-78
2022/02/23 05:20:51;;;;;;;6.07;0.95;;;;;;;-146.05;100.00;59461.22;5052974;28;20502;-79
2022/02/23 05:23:22;;;;;;;5.25;0.80;;;;;;;-146.05;100.00;59461.22;5053159;28;20076;-79
2022/02/23 05:25:49;;;;;;;1.92;0.63;;;;;;;-146.05;100.00;59461.22;5052709;28;20057;-78
2022/02/23 05:28:18;;;;;;;1.77;1.00;;;;;;;-146.05;100.00;59461.22;5053360;28;20048;-79
2022/02/23 05:30:47;;;;;;;2.65;0.80;;;;;;;-146.05;100.00;59461.22;5053198;28;20446;-78
2022/02/23 05:33:15;;;;;;;3.75;0.90;;;;;;;-146.05;100.00;59461.22;5053434;28;20044;-80
2022/02/23 05:35:42;;;;;;;4.07;1.35;;;;;;;-146.05;100.00;59461.22;5054412;28;20049;-79
2022/02/23 05:38:10;;;;;;;2.50;1.05;;;;;;;-146.05;100.00;59461.22;5067840;28;20067;-81
2022/02/23 05:40:38;;;;;;;2.92;1.15;;;;;;;-146.05;100.00;59461.22;5075889;28;20056;-79
2022/02/23 05:43:08;;;;;;;3.55;0.90;;;;;;;-146.05;100.00;59461.22;5080526;28;20052;-79
2022/02/23 05:45:36;;;;;;;3.55;0.85;;;;;;;-146.05;100.00;59461.22;5072000;28;20056;-80
2022/02/23 05:48:05;;;;;;;7.75;2.50;;;;;;;-146.05;100.00;59461.22;5083568;28;20044;-79
2022/02/23 05:50:33;;;;;;;12.27;4.50;;;;;;;-146.05;100.00;59461.22;5076458;28;20049;-80
2022/02/23 05:53:00;;;;;;;6.05;2.40;;;;;;;-146.05;100.00;59461.22;5070033;28;20045;-79
2022/02/23 05:55:28;;;;;;;15.88;6.93;;;;;;;-146.05;100.00;59461.22;5054106;28;20045;-81
2022/02/23 05:57:55;;;;;;;84.15;42.53;;;;;;;-146.05;100.00;59461.22;5053091;28;20049;-82
2022/02/23 06:00:23;;;;;;;32.92;17.50;;;;;;;-146.05;100.00;59461.22;5056118;28;20057;-82
2022/02/23 06:02:50;;;;;;;16.58;7.05;;;;;;;-146.05;100.00;59461.22;5064117;28;20053;-81
2022/02/23 06:05:19;;;;;;;12.52;4.00;;;;;;;-146.05;100.00;59461.22;5062233;28;20087;-79
2022/02/23 06:07:47;;;;;;;9.57;2.85;;;;;;;-146.05;100.00;59461.22;5061962;28;20112;-77
2022/02/23 06:10:16;;;;;;;6.40;2.60;;;;;;;-146.05;100.00;59461.22;5066786;28;20045;-78
2022/02/23 06:12:43;;;;;;;6.43;2.83;;;;;;;-146.05;100.00;59461.22;5085755;28;20051;-77
2022/02/23 06:15:11;;;;;;;7.65;3.05;;;;;;;-146.05;100.00;59461.22;5076173;28;20464;-78
2022/02/23 06:17:39;;;;;;;6.43;3.15;;;;;;;-146.05;100.00;59461.22;5070468;28;20153;-76
2022/02/23 06:20:07;;;;;;;9.07;4.75;;;;;;;-146.05;100.00;59461.22;5070662;28;20457;-78
2022/02/23 06:22:37;;;;;;;12.90;5.57;;;;;;;-146.05;100.00;59461.22;5070614;28;20060;-78
2022/02/23 06:25:06;;;;;;;10.57;6.10;;;;;;;-146.05;100.00;59461.22;5071053;28;20048;-78
2022/02/23 06:27:33;;;;;;;6.78;3.70;;;;;;;-146.05;100.00;59461.22;5070266;28;20053;-78
2022/02/23 06:30:01;;;;;;;5.03;3.17;;;;;;;-146.05;100.00;59461.22;5070483;28;20040;-78
2022/02/23 06:32:28;;;;;;;9.73;3.80;;;;;;;-146.05;100.00;59461.22;5071756;28;20433;-78
2022/02/23 06:34:56;;;;;;;4.38;2.58;;;;;;;-146.05;100.00;59461.22;5072566;28;20041;-78
2022/02/23 06:37:24;;;;;;;5.93;2.95;;;;;;;-146.05;100.00;59461.22;5072259;28;20060;-78
2022/02/23 06:39:54;;;;;;;5.00;2.58;;;;;;;-146.05;100.00;59461.22;5072687;28;20052;-78
2022/02/23 06:42:21;;;;;;;6.75;2.85;;;;;;;-146.05;100.00;59461.22;5072041;28;20052;-78
2022/02/23 06:44:49;;;;;;;4.00;2.47;;;;;;;-146.05;100.00;59461.22;5063475;28;20049;-78
2022/02/23 06:47:17;;;;;;;4.40;2.42;;;;;;;-146.05;100.00;59461.22;5051915;28;20490;-78
2022/02/23 06:49:44;;;;;;;6.82;2.50;;;;;;;-146.05;100.00;59461.22;5052976;28;20045;-78
2022/02/23 06:52:13;;;;;;;5.85;2.20;;;;;;;-146.05;100.00;59461.22;5052539;28;20529;-77
2022/02/23 06:54:41;;;;;;;4.40;2.28;;;;;;;-146.05;100.00;59461.22;5052254;28;20060;-80
2022/02/23 06:57:10;;;;;;;11.00;3.90;;;;;;;-146.05;100.00;59461.22;5055793;28;20053;-80
2022/02/23 06:59:39;;;;;;;6.82;4.13;;;;;;;-146.05;100.00;59461.22;5057384;28;20048;-79
2022/02/23 07:02:08;;;;;;;7.95;3.42;;;;;;;-146.05;100.00;59461.22;5071675;28;20055;-80
2022/02/23 07:04:35;;;;;;;7.93;2.83;;;;;;;-146.05;100.00;59461.22;5076708;28;20048;-79
2022/02/23 07:07:04;;;;;;;7.18;2.70;;;;;;;-146.05;100.00;59461.22;5076451;28;20044;-79
2022/02/23 07:09:32;;;;;;;6.78;3.17;;;;;;;-146.05;100.00;59461.22;5076614;28;20600;-79
2022/02/23 07:12:04;;;;;;;10.73;4.97;;;;;;;-146.05;100.00;59461.22;5075813;28;20040;-79
2022/02/23 07:14:34;;;;;;;9.30;5.05;;;;;;;-146.05;100.00;59461.22;5076320;28;20559;-79
2022/02/23 07:17:02;;;;;;;11.48;5.78;;;;;;;-146.05;100.00;59461.22;5076191;28;20055;-78
2022/02/23 07:19:33;;;;;;;12.73;6.45;;;;;;;-146.05;100.00;59461.22;5076075;28;20052;-78
2022/02/23 07:22:01;;;;;;;14.73;6.60;;;;;;;-146.05;100.00;59461.22;5076033;28;20057;-79
2022/02/23 07:24:30;;;;;;;13.60;7.47;;;;;;;-146.05;100.00;59461.22;5075365;28;20055;-78
2022/02/23 07:26:58;;;;;;;12.68;6.80;;;;;;;-146.05;100.00;59461.22;5075738;28;20426;-80
2022/02/23 07:29:25;;;;;;;15.90;7.32;;;;;;;-146.05;100.00;59461.22;5076269;28;20044;-79
2022/02/23 07:31:54;;;;;;;14.38;7.22;;;;;;;-146.05;100.00;59461.22;5075747;28;20045;-79
2022/02/23 07:34:22;;;;;;;12.65;6.43;;;;;;;-146.05;100.00;59461.22;5075687;28;20050;-80
2022/02/23 07:36:49;;;;;;;7.53;4.45;;;;;;;-146.05;100.00;59461.22;5076807;28;20063;-79
2022/02/23 07:39:17;;;;;;;12.32;5.18;;;;;;;-146.05;100.00;59461.22;5076269;28;20040;-79
2022/02/23 07:41:44;;;;;;;12.80;4.63;;;;;;;-146.05;100.00;59461.22;5076052;28;20060;-80
2022/02/23 07:44:32;;;;;;;9.90;5.00;;;;;;;-146.05;100.00;59461.22;5068790;28;20045;-80
2022/02/23 07:47:01;;;;;;;8.52;4.40;;;;;;;-146.05;100.00;59461.22;5055212;28;20049;-79
2022/02/23 07:49:29;;;;;;;9.52;5.13;;;;;;;-146.05;100.00;59461.22;5055656;28;20052;-80
2022/02/23 07:51:56;;;;;;;9.40;4.72;;;;;;;-146.05;100.00;59461.22;5055303;28;20048;-79
2022/02/23 07:54:25;;;;;;;10.15;4.60;;;;;;;-146.05;100.00;59461.22;5054887;28;20521;-79
2022/02/23 07:56:53;;;;;;;10.30;4.15;;;;;;;-146.05;100.00;59461.22;5054615;28;20408;-79
2022/02/23 07:59:20;;;;;;;8.75;4.05;;;;;;;-146.05;100.00;59461.22;5055257;28;20487;-79
2022/02/23 08:01:49;;;;;;;7.75;3.88;;;;;;;-146.05;100.00;59461.22;5055091;28;20136;-80
2022/02/23 08:04:20;;;;;;;7.30;3.95;;;;;;;-146.05;100.00;59461.22;5055174;28;20049;-80
2022/02/23 08:06:48;;;;;;;8.15;3.17;;;;;;;-146.05;100.00;59461.22;5054434;28;20049;-81
2022/02/23 08:09:15;;;;;;;8.77;3.42;;;;;;;-146.05;100.00;59461.22;5054924;28;20053;-80
2022/02/23 08:11:43;;;;;;;8.68;3.03;;;;;;;-146.05;100.00;59461.22;5054358;28;20056;-80
2022/02/23 08:14:11;;;;;;;7.30;2.88;;;;;;;-146.05;100.00;59461.22;5053837;28;20045;-80
2022/02/23 08:19:34;;;;;;;7.90;2.33;;;;;;;-146.05;100.00;59461.22;5054358;28;20064;-79
2022/02/23 08:22:05;;;;;;;8.07;2.88;;;;;;;-146.05;100.00;59461.22;5054706;28;20053;-80
2022/02/23 08:24:35;;;;;;;6.45;2.65;;;;;;;-146.05;100.00;59461.22;5053786;28;20052;-80
2022/02/23 08:27:05;;;;;;;9.32;2.83;;;;;;;-146.05;100.00;59461.22;5053752;28;20045;-80
2022/02/23 08:29:34;;;;;;;9.18;2.95;;;;;;;-146.05;100.00;59461.22;5062772;28;20496;-80
2022/02/23 08:32:04;;;;;;;7.45;2.72;;;;;;;-146.05;100.00;59461.22;5073792;28;20406;-80
2022/02/23 08:34:32;;;;;;;4.60;2.25;;;;;;;-146.05;100.00;59461.22;5069339;28;20443;-82
2022/02/23 08:37:01;;;;;;;7.18;2.30;;;;;;;-146.05;100.00;59461.22;5055092;28;20055;-79
2022/02/23 08:39:30;;;;;;;5.55;1.80;;;;;;;-146.05;100.00;59461.22;5053884;28;20045;-80
2022/02/23 08:41:58;;;;;;;4.97;1.92;;;;;;;-146.05;100.00;59461.22;5053967;28;20657;-80
2022/02/23 08:44:25;;;;;;;5.55;2.50;;;;;;;-146.05;100.00;59461.22;5059621;28;20041;-81
2022/02/23 08:46:56;;;;;;;13.90;2.55;;;;;;;-146.05;100.00;59461.22;5075021;28;20417;-80
2022/02/23 08:49:23;;;;;;;7.03;2.58;;;;;;;-146.05;100.00;59461.22;5084224;28;20040;-81
2022/02/23 08:51:52;;;;;;;4.18;2.10;;;;;;;-146.05;100.00;59461.22;5088699;28;20044;-80
2022/02/23 08:54:21;;;;;;;9.48;2.03;;;;;;;-146.05;100.00;59461.22;5079664;28;20410;-81
2022/02/23 08:56:49;;;;;;;5.70;1.80;;;;;;;-146.05;100.00;59461.22;5074741;28;20044;-80
2022/02/23 08:59:16;;;;;;;9.60;2.08;;;;;;;-146.05;100.00;59461.22;5080105;28;20530;-80
2022/02/23 09:01:47;;;;;;;7.28;1.80;;;;;;;-146.05;100.00;59461.22;5085607;28;20063;-81
2022/02/23 09:04:14;;;;;;;6.97;1.95;;;;;;;-146.05;100.00;59461.22;5073582;28;20055;-80
2022/02/23 09:06:42;;;;;;;6.03;1.92;;;;;;;-146.05;100.00;59461.22;5073607;28;20048;-80
2022/02/23 09:09:13;;;;;;;5.35;1.75;;;;;;;-146.05;100.00;59461.22;5073550;28;20055;-81
2022/02/23 09:11:43;;;;;;;6.88;2.30;;;;;;;-146.05;100.00;59461.22;5073625;28;20103;-81
2022/02/23 09:14:11;;;;;;;4.97;2.03;;;;;;;-146.05;100.00;59461.22;5073219;28;20710;-81
2022/02/23 09:16:38;;;;;;;11.75;2.88;;;;;;;-146.05;100.00;59461.22;5072910;28;20049;-81
2022/02/23 09:19:06;;;;;;;7.45;1.95;;;;;;;-146.05;100.00;59461.22;5073256;28;20510;-80
2022/02/23 09:21:34;;;;;;;7.60;1.92;;;;;;;-146.05;100.00;59461.22;5073350;28;20056;-81
2022/02/23 09:24:05;;;;;;;5.57;1.67;;;;;;;-146.05;100.00;59461.22;5072839;28;20465;-82
2022/02/23 09:26:34;;;;;;;4.63;1.80;;;;;;;-146.05;100.00;59461.22;5073315;28;20049;-81
2022/02/23 09:29:03;;;;;;;4.18;1.65;;;;;;;-146.05;100.00;59461.22;5072557;28;20052;-82
2022/02/23 09:31:31;;;;;;;10.45;1.52;;;;;;;-146.05;100.00;59461.22;5072193;28;20047;-81
2022/02/23 09:33:59;;;;;;;3.95;1.50;;;;;;;-146.05;100.00;59461.22;5071696;28;20047;-80
2022/02/23 09:36:27;;;;;;;5.28;1.70;;;;;;;-146.05;100.00;59461.22;5072125;28;20044;-81
2022/02/23 09:38:54;;;;;;;5.90;1.70;;;;;;;-146.05;100.00;59461.22;5070694;28;20596;-79
2022/02/23 09:41:24;;;;;;;6.93;1.50;;;;;;;-146.05;100.00;59461.22;5062663;28;20434;-80
2022/02/23 09:43:54;;;;;;;4.93;1.55;;;;;;;-146.05;100.00;59461.22;5061797;28;20052;-79
2022/02/23 09:46:24;;;;;;;3.50;1.40;;;;;;;-146.05;100.00;59461.22;5073421;28;20045;-80
2022/02/23 09:48:54;;;;;;;5.45;1.70;;;;;;;-146.05;100.00;59461.22;5058495;28;20056;-80
2022/02/23 09:51:22;;;;;;;6.57;1.45;;;;;;;-146.05;100.00;59461.22;5052206;28;20439;-80
2022/02/23 09:53:55;;;;;;;5.30;1.80;;;;;;;-146.05;100.00;59461.22;5051495;28;20048;-80
2022/02/23 09:56:23;;;;;;;5.10;1.23;;;;;;;-146.05;100.00;59461.22;5051281;28;20068;-80
2022/02/23 09:58:53;;;;;;;5.47;2.13;;;;;;;-146.05;100.00;59461.22;5051397;28;20049;-78
2022/02/23 10:01:23;;;;;;;5.63;1.60;;;;;;;-146.05;100.00;59461.22;5051403;28;20056;-80
2022/02/23 10:03:51;;;;;;;6.68;1.90;;;;;;;-146.05;100.00;59461.22;5051387;28;20056;-79
2022/02/23 10:06:20;;;;;;;3.75;1.48;;;;;;;-146.05;100.00;59461.22;5051885;28;20061;-80
2022/02/23 10:08:59;;;;;;;7.10;1.67;;;;;;;-146.05;100.00;59461.22;5052745;28;20057;-80
2022/02/23 10:11:27;;;;;;;7.95;1.60;;;;;;;-146.05;100.00;59461.22;5052951;28;20053;-80
2022/02/23 10:13:57;;;;;;;4.15;1.30;;;;;;;-146.05;100.00;59461.22;5052853;28;20123;-81
2022/02/23 10:16:32;;;;;;;5.63;1.80;;;;;;;-146.05;100.00;59461.22;5052703;28;20056;-80
2022/02/23 10:19:10;;;;;;;4.25;1.60;;;;;;;-146.05;100.00;59461.22;5052987;28;20049;-80
2022/02/23 10:21:45;;;;;;;10.30;4.50;;;;;;;-146.05;100.00;59461.22;5052440;28;20049;-80
2022/02/23 10:24:21;;;;;;;2.90;1.33;;;;;;;-146.05;100.00;59461.22;5052478;28;20056;-80
2022/02/23 10:27:06;;;;;;;5.07;1.65;;;;;;;-146.05;100.00;59461.22;5052381;28;20057;-80
2022/02/23 10:29:38;;;;;;;3.35;1.30;;;;;;;-146.05;100.00;59461.22;5052691;28;20053;-80
2022/02/23 10:32:11;;;;;;;5.18;1.60;;;;;;;-146.05;100.00;59461.22;5052916;28;20053;-81
2022/02/23 10:34:41;;;;;;;3.53;1.20;;;;;;;-146.05;100.00;59461.22;5058520;28;20041;-80
2022/02/23 10:37:16;;;;;;;3.50;1.13;;;;;;;-146.05;100.00;59461.22;5072792;28;20574;-80
2022/02/23 10:39:46;;;;;;;3.88;1.60;;;;;;;-146.05;100.00;59461.22;5076036;28;20049;-80
2022/02/23 10:42:15;;;;;;;3.75;1.00;;;;;;;-146.05;100.00;59461.22;5075719;28;20059;-80
2022/02/23 10:44:46;;;;;;;4.32;1.48;;;;;;;-146.05;100.00;59461.22;5076750;28;20067;-79
2022/02/23 10:47:22;;;;;;;3.97;1.25;;;;;;;-146.05;100.00;59461.22;5076037;28;20486;-79
2022/02/23 10:50:01;;;;;;;7.28;1.65;;;;;;;-146.05;100.00;59461.22;5076501;28;20056;-80
2022/02/23 10:52:30;;;;;;;2.55;0.93;;;;;;;-146.05;100.00;59461.22;5076261;28;20055;-79
2022/02/23 10:55:19;;;;;;;9.35;1.45;;;;;;;-146.05;100.00;59461.22;5075913;28;20044;-80
2022/02/23 10:57:48;;;;;;;4.78;1.35;;;;;;;-146.05;100.00;59461.22;5075855;28;20076;-80
2022/02/23 11:00:19;;;;;;;4.90;1.33;;;;;;;-146.05;100.00;59461.22;5075596;28;20059;-80
2022/02/23 11:02:48;;;;;;;3.25;1.10;;;;;;;-146.05;100.00;59461.22;5076275;28;20055;-79
2022/02/23 11:05:17;;;;;;;4.30;1.23;;;;;;;-146.05;100.00;59461.22;5075611;28;20494;-80
2022/02/23 11:07:45;;;;;;;3.05;0.90;;;;;;;-146.05;100.00;59461.22;5075731;28;20049;-79
2022/02/23 11:10:14;;;;;;;3.83;1.13;;;;;;;-146.05;100.00;59461.22;5075635;28;20102;-81
2022/02/23 11:12:46;;;;;;;5.35;1.20;;;;;;;-146.05;100.00;59461.22;5075333;28;20098;-80
2022/02/23 11:15:15;;;;;;;2.67;0.97;;;;;;;-146.05;100.00;59461.22;5075425;28;20102;-80
2022/02/23 11:17:45;;;;;;;4.57;1.52;;;;;;;-146.05;100.00;59461.22;5095018;28;20285;-80
2022/02/23 11:20:17;;;;;;;5.55;2.03;;;;;;;-146.05;100.00;59461.22;5080055;28;20486;-80